createdAt,value
2022-09-15T00:01:44.822Z,83.13
2022-09-15T00:04:13.612Z,83.66
2022-09-15T00:06:42.350Z,83.40
2022-09-15T00:09:12.542Z,83.42
2022-09-15T00:11:44.223Z,83.43
2022-09-15T00:14:12.879Z,83.17
2022-09-15T00:16:41.615Z,82.83
2022-09-15T00:19:10.397Z,82.64
2022-09-15T00:21:41.540Z,82.50
2022-09-15T00:24:14.324Z,82.48
2022-09-15T00:26:42.996Z,82.45
2022-09-15T00:29:12.297Z,82.04
2022-09-15T00:31:41.083Z,81.61
2022-09-15T00:34:13.590Z,81.71
2022-09-15T00:36:42.391Z,81.82
2022-09-15T00:39:11.156Z,81.71
2022-09-15T00:41:42.244Z,80.44
2022-09-15T00:44:44.184Z,80.88
2022-09-15T00:47:19.500Z,80.30
2022-09-15T00:49:58.430Z,80.41
2022-09-15T00:52:33.629Z,81.26
2022-09-15T00:55:11.386Z,81.76
2022-09-15T00:57:50.799Z,81.67
2022-09-15T01:00:22.061Z,81.96
2022-09-15T01:02:51.707Z,82.24
2022-09-15T01:05:22.061Z,82.04
2022-09-15T01:07:54.889Z,81.42
2022-09-15T01:10:27.938Z,81.87
2022-09-15T01:12:59.101Z,82.14
2022-09-15T01:15:33.857Z,80.83
2022-09-15T01:18:11.903Z,81.49
2022-09-15T01:21:03.045Z,81.29
2022-09-15T01:24:11.267Z,81.44
2022-09-15T01:26:58.551Z,82.64
2022-09-15T01:29:53.054Z,83.17
2022-09-15T01:32:52.931Z,82.86
2022-09-15T01:35:37.075Z,83.16
2022-09-15T01:38:10.778Z,83.46
2022-09-15T01:40:45.943Z,83.01
2022-09-15T01:43:16.960Z,83.34
2022-09-15T01:45:49.373Z,83.63
2022-09-15T01:48:22.628Z,83.68
2022-09-15T01:50:54.492Z,83.81
2022-09-15T01:53:25.232Z,84.23
2022-09-15T01:55:57.590Z,84.40
2022-09-15T01:58:26.397Z,84.29
2022-09-15T02:01:01.919Z,84.30
2022-09-15T02:03:35.193Z,84.01
2022-09-15T02:06:11.306Z,84.05
2022-09-15T02:08:45.601Z,83.75
2022-09-15T02:11:18.086Z,83.74
2022-09-15T02:13:54.211Z,83.45
2022-09-15T02:16:26.642Z,83.53
2022-09-15T02:19:09.770Z,83.45
2022-09-15T02:21:52.362Z,83.35
2022-09-15T02:24:28.656Z,83.30
2022-09-15T02:26:58.746Z,83.03
2022-09-15T02:29:30.000Z,82.96
2022-09-15T02:32:06.387Z,82.95
2022-09-15T02:34:40.959Z,82.58
2022-09-15T02:37:11.539Z,82.81
2022-09-15T02:39:48.874Z,82.78
2022-09-15T02:42:24.631Z,82.47
2022-09-15T02:44:55.651Z,82.32
2022-09-15T02:47:27.944Z,81.98
2022-09-15T02:49:57.291Z,82.24
2022-09-15T02:52:26.238Z,82.11
2022-09-15T02:54:54.876Z,82.13
2022-09-15T02:57:24.125Z,82.63
2022-09-15T03:00:10.044Z,82.49
2022-09-15T03:02:40.234Z,82.58
2022-09-15T03:05:10.252Z,82.52
2022-09-15T03:07:39.202Z,82.40
2022-09-15T03:10:09.755Z,82.33
2022-09-15T03:12:41.312Z,82.58
2022-09-15T03:15:12.017Z,82.48
2022-09-15T03:17:44.743Z,82.47
2022-09-15T03:20:16.120Z,82.41
2022-09-15T03:22:45.968Z,82.27
2022-09-15T03:25:17.285Z,82.27
2022-09-15T03:27:45.972Z,82.20
2022-09-15T03:30:15.557Z,82.34
2022-09-15T03:32:49.104Z,82.38
2022-09-15T03:35:17.846Z,82.67
2022-09-15T03:37:46.892Z,82.47
2022-09-15T03:40:15.658Z,83.18
2022-09-15T03:42:44.323Z,83.63
2022-09-15T03:45:12.949Z,83.86
2022-09-15T03:47:41.637Z,84.03
2022-09-15T03:50:11.858Z,84.11
2022-09-15T03:52:40.504Z,84.59
2022-09-15T03:55:09.953Z,84.59
2022-09-15T03:57:38.800Z,84.76
2022-09-15T04:00:08.917Z,84.75
2022-09-15T04:02:37.565Z,85.37
2022-09-15T04:05:07.150Z,85.51
2022-09-15T04:07:38.005Z,85.19
2022-09-15T04:10:07.928Z,84.67
2022-09-15T04:12:38.927Z,84.84
2022-09-15T04:15:08.193Z,85.14
2022-09-15T04:17:36.828Z,85.00
2022-09-15T04:20:06.045Z,84.89
2022-09-15T04:22:34.828Z,83.95
2022-09-15T04:25:05.435Z,82.37
2022-09-15T04:27:35.932Z,81.91
2022-09-15T04:30:05.257Z,81.81
2022-09-15T04:32:35.651Z,81.17
2022-09-15T04:35:05.450Z,80.89
2022-09-15T04:37:34.327Z,80.99
2022-09-15T04:40:04.632Z,80.97
2022-09-15T04:42:33.376Z,80.94
2022-09-15T04:45:02.157Z,81.14
2022-09-15T04:47:33.152Z,80.99
2022-09-15T04:50:01.837Z,80.62
2022-09-15T04:52:30.489Z,80.45
2022-09-15T04:54:59.265Z,80.16
2022-09-15T04:57:29.321Z,80.26
2022-09-15T04:59:58.076Z,80.27
2022-09-15T05:02:26.771Z,80.42
2022-09-15T05:04:55.460Z,79.95
2022-09-15T05:07:26.739Z,80.14
2022-09-15T05:09:55.561Z,80.22
2022-09-15T05:12:24.202Z,80.59
2022-09-15T05:14:54.226Z,79.83
2022-09-15T05:17:26.600Z,80.52
2022-09-15T05:19:55.445Z,78.97
2022-09-15T05:22:24.091Z,79.94
2022-09-15T05:24:52.871Z,80.24
2022-09-15T05:27:21.825Z,79.83
2022-09-15T05:29:56.936Z,80.17
2022-09-15T05:32:40.005Z,81.08
2022-09-15T05:35:08.775Z,81.84
2022-09-15T05:37:37.422Z,81.91
2022-09-15T05:40:08.744Z,82.12
2022-09-15T05:42:37.489Z,82.69
2022-09-15T05:45:06.919Z,82.84
2022-09-15T05:47:35.549Z,82.43
2022-09-15T05:50:06.136Z,82.64
2022-09-15T05:52:35.901Z,82.85
2022-09-15T05:55:05.345Z,82.42
2022-09-15T05:57:34.255Z,82.80
2022-09-15T06:00:03.483Z,82.83
2022-09-15T06:02:40.615Z,83.29
2022-09-15T06:05:11.520Z,83.20
2022-09-15T06:07:40.432Z,83.75
2022-09-15T06:10:10.435Z,83.71
2022-09-15T06:12:39.118Z,83.62
2022-09-15T06:15:08.364Z,83.44
2022-09-15T06:17:37.120Z,82.94
2022-09-15T06:20:07.465Z,83.02
2022-09-15T06:22:37.577Z,82.78
2022-09-15T06:25:07.611Z,82.21
2022-09-15T06:27:36.432Z,82.50
2022-09-15T06:30:05.428Z,81.89
2022-09-15T06:32:34.106Z,81.95
2022-09-15T06:35:06.496Z,81.82
2022-09-15T06:37:37.111Z,81.50
2022-09-15T06:40:07.717Z,81.11
2022-09-15T06:42:36.474Z,80.59
2022-09-15T06:45:06.015Z,80.48
2022-09-15T06:47:35.513Z,78.76
2022-09-15T06:50:05.154Z,78.03
2022-09-15T06:52:33.851Z,76.69
2022-09-15T06:55:06.125Z,75.65
2022-09-15T06:57:34.705Z,76.56
2022-09-15T07:00:03.969Z,78.22
2022-09-15T07:02:33.000Z,79.12
2022-09-15T07:05:01.892Z,78.87
2022-09-15T07:07:33.162Z,79.39
2022-09-15T07:10:03.546Z,79.82
2022-09-15T07:12:32.530Z,80.28
2022-09-15T07:15:01.250Z,80.82
2022-09-15T07:17:30.231Z,81.06
2022-09-15T07:19:58.874Z,81.11
2022-09-15T07:22:27.531Z,80.77
2022-09-15T07:24:58.350Z,80.63
2022-09-15T07:27:31.668Z,80.19
2022-09-15T07:30:00.326Z,80.49
2022-09-15T07:32:29.046Z,79.67
2022-09-15T07:34:59.862Z,79.71
2022-09-15T07:37:28.736Z,80.04
2022-09-15T07:39:57.392Z,79.61
2022-09-15T07:42:26.331Z,79.51
2022-09-15T07:44:56.354Z,79.92
2022-09-15T07:47:24.965Z,79.57
2022-09-15T07:49:54.064Z,79.65
2022-09-15T07:52:22.741Z,79.40
2022-09-15T07:54:51.399Z,79.83
2022-09-15T07:57:20.091Z,80.14
2022-09-15T07:59:51.772Z,79.60
2022-09-15T08:02:22.773Z,78.08
2022-09-15T08:04:51.996Z,79.70
2022-09-15T08:07:23.022Z,78.01
2022-09-15T08:09:53.987Z,77.69
2022-09-15T08:12:22.651Z,77.85
2022-09-15T08:14:51.308Z,77.31
2022-09-15T08:17:23.691Z,73.39
2022-09-15T08:19:53.173Z,73.90
2022-09-15T08:22:21.818Z,74.21
2022-09-15T08:24:50.667Z,72.54
2022-09-15T08:27:21.491Z,73.43
2022-09-15T08:29:50.145Z,73.55
2022-09-15T08:32:18.979Z,74.56
2022-09-15T08:34:48.993Z,72.43
2022-09-15T08:37:17.964Z,74.21
2022-09-15T08:39:47.233Z,74.26
2022-09-15T08:42:17.528Z,75.03
2022-09-15T08:44:49.894Z,72.85
2022-09-15T08:47:23.948Z,71.89
2022-09-15T08:50:00.492Z,73.33
2022-09-15T08:52:34.700Z,74.34
2022-09-15T08:55:08.165Z,74.92
2022-09-15T08:57:36.890Z,75.34
2022-09-15T09:00:06.401Z,75.08
2022-09-15T09:03:00.011Z,74.55
2022-09-15T09:05:52.063Z,70.87
2022-09-15T09:08:36.746Z,69.69
2022-09-15T09:11:13.372Z,68.58
2022-09-15T09:13:50.469Z,68.07
2022-09-15T09:16:43.617Z,65.51
2022-09-15T09:19:31.916Z,66.25
2022-09-15T09:22:09.680Z,67.49
2022-09-15T09:24:44.386Z,68.80
2022-09-15T09:27:15.308Z,65.76
2022-09-15T09:29:49.629Z,66.07
2022-09-15T09:32:22.112Z,67.12
2022-09-15T09:35:00.016Z,66.79
2022-09-15T09:37:30.425Z,66.34
2022-09-15T09:39:59.411Z,66.56
2022-09-15T09:42:31.404Z,66.61
2022-09-15T09:45:00.486Z,65.13
2022-09-15T09:47:30.706Z,65.32
2022-09-15T09:49:59.900Z,62.45
2022-09-15T09:52:37.811Z,61.31
2022-09-15T09:55:24.264Z,60.94
2022-09-15T09:57:52.890Z,61.87
2022-09-15T10:00:37.548Z,60.47
2022-09-15T10:03:12.786Z,61.22
2022-09-15T10:05:42.056Z,57.82
2022-09-15T10:08:19.539Z,56.66
2022-09-15T10:10:53.175Z,55.92
2022-09-15T10:13:23.051Z,56.10
2022-09-15T10:15:55.739Z,56.20
2022-09-15T10:18:34.159Z,56.68
2022-09-15T10:21:05.676Z,54.57
2022-09-15T10:23:35.904Z,55.38
2022-09-15T10:26:22.930Z,54.85
2022-09-15T10:29:14.642Z,55.63
2022-09-15T10:31:44.213Z,52.06
2022-09-15T10:34:26.865Z,51.62
2022-09-15T10:37:03.814Z,51.83
2022-09-15T10:39:43.993Z,53.96
2022-09-15T10:42:20.204Z,53.12
2022-09-15T10:44:58.026Z,52.04
2022-09-15T10:47:37.542Z,50.64
2022-09-15T10:50:14.299Z,52.35
2022-09-15T10:53:10.691Z,46.45
2022-09-15T10:55:53.666Z,47.17
2022-09-15T10:58:36.013Z,47.68
2022-09-15T11:01:20.505Z,46.47
2022-09-15T11:04:07.909Z,46.54
2022-09-15T11:06:45.730Z,47.09
2022-09-15T11:09:23.332Z,47.68
2022-09-15T11:12:06.646Z,45.85
2022-09-15T11:14:52.921Z,45.83
2022-09-15T11:17:36.535Z,45.47
2022-09-15T11:20:25.326Z,46.71
2022-09-15T11:22:59.573Z,47.80
2022-09-15T11:25:31.359Z,47.83
2022-09-15T11:28:05.597Z,48.66
2022-09-15T11:30:38.845Z,46.77
2022-09-15T11:33:16.252Z,46.92
2022-09-15T11:35:53.763Z,47.14
2022-09-15T11:38:40.675Z,45.84
2022-09-15T11:41:19.148Z,45.37
2022-09-15T11:44:08.825Z,43.86
2022-09-15T11:46:51.723Z,44.12
2022-09-15T11:49:25.074Z,45.05
2022-09-15T11:52:08.200Z,44.99
2022-09-15T11:54:38.949Z,44.16
2022-09-15T11:57:18.054Z,43.56
2022-09-15T11:59:57.838Z,43.05
2022-09-15T12:02:32.890Z,44.54
2022-09-15T12:05:10.240Z,46.28
2022-09-15T12:07:45.742Z,45.78
2022-09-15T12:10:19.019Z,44.83
2022-09-15T12:12:48.990Z,44.20
2022-09-15T12:15:27.177Z,44.24
2022-09-15T12:18:06.553Z,44.66
2022-09-15T12:20:53.876Z,42.93
2022-09-15T12:23:33.971Z,43.64
2022-09-15T12:26:09.153Z,45.58
2022-09-15T12:28:43.255Z,45.54
2022-09-15T12:31:30.483Z,45.43
2022-09-15T12:34:00.920Z,44.83
2022-09-15T12:36:45.767Z,44.68
2022-09-15T12:39:37.976Z,46.24
2022-09-15T12:42:14.250Z,47.25
2022-09-15T12:44:47.726Z,48.42
2022-09-15T12:47:34.753Z,51.18
2022-09-15T12:50:09.545Z,55.45
2022-09-15T12:52:45.870Z,58.89
2022-09-15T12:55:21.100Z,59.39
2022-09-15T12:57:55.595Z,58.12
2022-09-15T13:00:34.776Z,59.51
2022-09-15T13:03:06.130Z,58.73
2022-09-15T13:06:08.161Z,57.39
2022-09-15T13:08:54.973Z,57.72
2022-09-15T13:11:34.418Z,57.45
2022-09-15T13:14:14.687Z,59.00
2022-09-15T13:16:52.838Z,58.67
2022-09-15T13:19:26.679Z,58.42
2022-09-15T13:22:01.352Z,57.26
2022-09-15T13:24:47.760Z,54.54
2022-09-15T13:27:19.580Z,52.90
2022-09-15T13:29:50.966Z,53.11
2022-09-15T13:32:36.532Z,53.56
2022-09-15T13:35:44.570Z,55.42
2022-09-15T13:38:47.844Z,55.17
2022-09-15T13:42:01.233Z,54.11
2022-09-15T13:45:07.903Z,54.81
2022-09-15T13:47:48.660Z,54.83
2022-09-15T13:50:24.387Z,56.09
2022-09-15T13:53:21.639Z,56.84
2022-09-15T13:55:51.680Z,57.04
2022-09-15T14:01:13.028Z,54.29
2022-09-15T14:03:47.681Z,53.51
2022-09-15T14:06:20.676Z,54.96
2022-09-15T14:08:52.964Z,55.98
2022-09-15T14:11:31.586Z,57.19
2022-09-15T14:14:01.506Z,57.47
2022-09-15T14:16:35.307Z,58.43
2022-09-15T14:19:21.440Z,58.79
2022-09-15T14:21:51.310Z,58.55
2022-09-15T14:24:30.044Z,58.68
2022-09-15T14:27:03.435Z,57.32
2022-09-15T14:29:34.693Z,57.24
2022-09-15T14:32:05.971Z,56.72
2022-09-15T14:34:37.702Z,56.95
2022-09-15T14:37:09.298Z,57.90
2022-09-15T14:39:40.527Z,57.62
2022-09-15T14:42:21.706Z,58.16
2022-09-15T14:47:43.288Z,56.47
2022-09-15T14:50:16.663Z,56.23
2022-09-15T14:52:50.521Z,56.71
2022-09-15T14:55:24.754Z,57.00
2022-09-15T14:57:59.494Z,58.24
2022-09-15T15:00:34.681Z,59.46
2022-09-15T15:03:17.613Z,58.64
2022-09-15T15:05:58.114Z,58.71
2022-09-15T15:08:38.126Z,59.08
2022-09-15T15:11:11.134Z,56.45
2022-09-15T15:13:43.477Z,56.76
2022-09-15T15:16:22.899Z,56.99
2022-09-15T15:18:53.197Z,56.76
2022-09-15T15:21:40.494Z,57.15
2022-09-15T15:24:16.156Z,58.37
2022-09-15T15:26:47.413Z,55.33
2022-09-15T15:29:43.436Z,54.52
2022-09-15T15:32:15.168Z,54.92
2022-09-15T15:34:51.584Z,55.26
2022-09-15T15:37:29.100Z,55.82
2022-09-15T15:39:59.619Z,56.93
2022-09-15T15:42:30.665Z,58.52
2022-09-15T15:45:01.518Z,60.94
2022-09-15T15:47:33.177Z,61.57
2022-09-15T15:50:13.783Z,61.61
2022-09-15T15:52:44.040Z,61.08
2022-09-15T15:55:15.314Z,62.32
2022-09-15T15:57:50.151Z,62.83
2022-09-15T16:00:22.567Z,63.16
2022-09-15T16:02:52.490Z,61.98
2022-09-15T16:05:23.219Z,61.15
2022-09-15T16:07:53.007Z,59.99
2022-09-15T16:10:24.596Z,60.45
2022-09-15T16:12:54.625Z,61.43
2022-09-15T16:15:23.790Z,62.72
2022-09-15T16:17:52.408Z,62.27
2022-09-15T16:20:27.807Z,62.78
2022-09-15T16:22:56.533Z,62.54
2022-09-15T16:25:34.944Z,62.26
2022-09-15T16:28:05.760Z,62.58
2022-09-15T16:30:37.608Z,63.36
2022-09-15T16:33:06.466Z,62.46
2022-09-15T16:35:39.490Z,63.00
2022-09-15T16:38:10.772Z,62.84
2022-09-15T16:40:39.403Z,63.20
2022-09-15T16:43:14.686Z,64.40
2022-09-15T16:45:44.882Z,64.18
2022-09-15T16:48:14.119Z,64.19
2022-09-15T16:51:02.183Z,63.09
2022-09-15T16:53:32.782Z,63.26
2022-09-15T16:56:01.404Z,63.58
2022-09-15T16:58:31.496Z,63.50
2022-09-15T17:01:00.388Z,63.59
2022-09-15T17:03:31.593Z,62.00
2022-09-15T17:06:02.210Z,61.54
2022-09-15T17:08:32.390Z,61.53
2022-09-15T17:11:05.042Z,60.67
2022-09-15T17:13:35.456Z,61.53
2022-09-15T17:16:04.231Z,62.13
2022-09-15T17:18:33.135Z,62.60
2022-09-15T17:21:01.847Z,62.41
2022-09-15T17:23:33.896Z,65.02
2022-09-15T17:26:05.371Z,68.57
2022-09-15T17:28:37.591Z,69.94
2022-09-15T17:31:12.935Z,69.20
2022-09-15T17:33:42.328Z,71.80
2022-09-15T17:36:11.590Z,74.49
2022-09-15T17:38:42.884Z,78.34
2022-09-15T17:41:15.092Z,79.36
2022-09-15T17:43:45.361Z,79.76
2022-09-15T17:46:14.209Z,80.48
2022-09-15T17:48:43.369Z,80.66
2022-09-15T17:51:17.150Z,80.44
2022-09-15T17:53:47.299Z,79.74
2022-09-15T17:56:16.023Z,79.09
2022-09-15T17:58:46.042Z,76.94
2022-09-15T18:01:16.786Z,76.99
2022-09-15T18:03:46.863Z,76.37
2022-09-15T18:06:15.597Z,77.01
2022-09-15T18:08:44.353Z,78.01
2022-09-15T18:11:15.663Z,78.53
2022-09-15T18:13:51.175Z,78.96
2022-09-15T18:16:19.925Z,80.26
2022-09-15T18:18:48.658Z,80.80
2022-09-15T18:21:26.974Z,80.74
2022-09-15T18:23:56.648Z,80.82
2022-09-15T18:26:26.847Z,80.94
2022-09-15T18:28:57.222Z,80.79
2022-09-15T18:31:26.994Z,80.49
2022-09-15T18:33:55.709Z,79.30
2022-09-15T18:36:24.547Z,76.24
2022-09-15T18:38:53.323Z,76.40
2022-09-15T18:41:22.268Z,77.05
2022-09-15T18:43:50.974Z,76.71
2022-09-15T18:46:23.379Z,75.42
2022-09-15T18:48:54.308Z,75.22
2022-09-15T18:51:40.951Z,75.70
2022-09-15T18:54:14.268Z,75.98
2022-09-15T18:56:43.189Z,76.21
2022-09-15T18:59:17.549Z,74.93
2022-09-15T19:01:48.024Z,74.07
2022-09-15T19:04:16.720Z,75.56
2022-09-15T19:06:45.467Z,75.38
2022-09-15T19:09:14.109Z,73.69
2022-09-15T19:11:42.734Z,74.03
2022-09-15T19:14:11.551Z,72.92
2022-09-15T19:16:57.050Z,73.66
2022-09-15T19:19:28.326Z,74.17
2022-09-15T19:21:57.054Z,74.25
2022-09-15T19:24:31.887Z,75.27
2022-09-15T19:27:02.323Z,75.92
2022-09-15T19:29:34.734Z,75.80
2022-09-15T19:32:04.004Z,77.29
2022-09-15T19:34:34.818Z,76.75
2022-09-15T19:37:08.193Z,77.06
2022-09-15T19:39:40.709Z,77.68
2022-09-15T19:42:11.503Z,78.46
2022-09-15T19:44:41.923Z,78.67
2022-09-15T19:47:10.804Z,77.94
2022-09-15T19:49:41.018Z,78.30
2022-09-15T19:52:09.702Z,77.91
2022-09-15T19:54:38.348Z,77.92
2022-09-15T19:57:07.193Z,77.88
2022-09-15T19:59:35.958Z,78.37
2022-09-15T20:02:12.295Z,77.88
2022-09-15T20:04:42.394Z,77.94
2022-09-15T20:07:11.030Z,77.67
2022-09-15T20:09:39.698Z,78.26
2022-09-15T20:12:08.478Z,78.49
2022-09-15T20:14:38.203Z,78.52
2022-09-15T20:17:09.728Z,79.01
2022-09-15T20:19:42.901Z,79.17
2022-09-15T20:22:11.571Z,79.53
2022-09-15T20:24:41.270Z,79.75
2022-09-15T20:27:09.934Z,80.11
2022-09-15T20:29:38.839Z,80.22
2022-09-15T20:32:07.559Z,80.42
2022-09-15T20:34:36.232Z,80.32
2022-09-15T20:37:06.554Z,78.98
2022-09-15T20:39:36.405Z,79.04
2022-09-15T20:42:05.282Z,79.68
2022-09-15T20:44:33.886Z,79.28
2022-09-15T20:47:02.747Z,78.67
2022-09-15T20:49:31.382Z,78.66
2022-09-15T20:51:59.975Z,75.98
2022-09-15T20:54:29.940Z,75.87
2022-09-15T20:57:01.607Z,77.73
2022-09-15T20:59:30.310Z,79.57
2022-09-15T21:01:58.930Z,79.29
2022-09-15T21:04:27.669Z,80.67
2022-09-15T21:06:57.192Z,80.59
2022-09-15T21:09:26.099Z,81.89
2022-09-15T21:11:56.111Z,82.12
2022-09-15T21:14:27.273Z,82.58
2022-09-15T21:16:55.953Z,81.63
2022-09-15T21:19:24.609Z,79.77
2022-09-15T21:21:55.011Z,79.29
2022-09-15T21:24:23.862Z,80.88
2022-09-15T21:27:10.765Z,80.63
2022-09-15T21:29:40.996Z,81.95
2022-09-15T21:32:09.805Z,82.05
2022-09-15T21:34:38.569Z,82.79
2022-09-15T21:37:07.388Z,81.85
2022-09-15T21:39:36.191Z,81.02
2022-09-15T21:42:05.765Z,80.95
2022-09-15T21:44:34.402Z,81.91
2022-09-15T21:47:04.442Z,82.87
2022-09-15T21:49:33.119Z,82.80
2022-09-15T21:52:01.803Z,82.00
2022-09-15T21:54:32.867Z,82.06
2022-09-15T21:57:01.519Z,82.52
2022-09-15T21:59:30.205Z,82.40
2022-09-15T22:01:58.893Z,83.28
2022-09-15T22:04:28.863Z,83.77
2022-09-15T22:06:57.544Z,84.06
2022-09-15T22:09:26.389Z,83.39
2022-09-15T22:11:55.029Z,83.18
2022-09-15T22:14:23.966Z,83.10
2022-09-15T22:16:52.687Z,83.06
2022-09-15T22:19:21.554Z,82.91
2022-09-15T22:21:51.718Z,82.24
2022-09-15T22:24:23.182Z,81.66
2022-09-15T22:26:52.371Z,84.99
2022-09-15T22:29:21.191Z,86.36
2022-09-15T22:31:49.869Z,86.79
2022-09-15T22:34:18.604Z,87.55
2022-09-15T22:36:47.296Z,87.60
2022-09-15T22:39:17.527Z,87.01
2022-09-15T22:41:46.230Z,87.13
2022-09-15T22:44:19.764Z,86.17
2022-09-15T22:46:51.439Z,85.68
2022-09-15T22:49:20.093Z,85.72
2022-09-15T22:51:48.812Z,86.34
2022-09-15T22:54:18.840Z,86.71
2022-09-15T22:56:49.777Z,86.65
2022-09-15T22:59:18.428Z,86.28
2022-09-15T23:01:47.419Z,86.37
2022-09-15T23:04:19.112Z,86.44
2022-09-15T23:06:49.159Z,86.81
2022-09-15T23:09:19.117Z,86.90
2022-09-15T23:11:47.842Z,87.25
2022-09-15T23:14:18.081Z,87.56
2022-09-15T23:16:49.719Z,86.65
2022-09-15T23:19:20.858Z,86.44
2022-09-15T23:21:49.578Z,86.55
2022-09-15T23:24:19.980Z,86.76
2022-09-15T23:26:48.625Z,86.55
2022-09-15T23:29:17.535Z,86.27
2022-09-15T23:31:46.205Z,86.99
2022-09-15T23:34:14.900Z,87.29
2022-09-15T23:36:43.611Z,87.09
2022-09-15T23:39:12.248Z,87.79
2022-09-15T23:41:42.311Z,88.04
2022-09-15T23:44:11.167Z,88.24
2022-09-15T23:46:39.950Z,88.32
2022-09-15T23:49:12.617Z,87.97
2022-09-15T23:51:43.086Z,88.31
2022-09-15T23:54:14.282Z,87.55
2022-09-15T23:56:44.358Z,86.70
2022-09-15T23:59:13.019Z,86.70
